Time;durP1;ratioP1;P1;durP2;ratioP2;P2;SDS_P1;SDS_P2;PMS_P1;PMS_P2;Temp;Humidity;BMP_temperature;BMP_pressure;BME280_temperature;BME280_humidity;BME280_pressure;Samples;Min_cycle;Max_cycle;Signal;HPM_P1;HPM_P2
2024/01/19 00:01:54;;;;;;;30.17;17.77;;;22.40;99.90;;;;;;5011788;28;20042;-53
2024/01/19 00:04:20;;;;;;;30.58;18.05;;;22.30;99.90;;;;;;5010252;28;20030;-53
2024/01/19 00:06:46;;;;;;;30.33;19.33;;;22.30;99.90;;;;;;5012063;28;20042;-55
2024/01/19 00:09:13;;;;;;;35.20;19.27;;;22.30;99.90;;;;;;5010132;28;20073;-54
2024/01/19 00:11:39;;;;;;;29.30;19.23;;;22.30;99.90;;;;;;5008989;28;20029;-55
2024/01/19 00:14:05;;;;;;;29.35;18.88;;;22.30;99.90;;;;;;5010065;28;20034;-53
2024/01/19 00:16:30;;;;;;;29.48;19.40;;;22.30;99.90;;;;;;5010438;28;20033;-54
2024/01/19 00:18:57;;;;;;;30.27;18.92;;;22.30;99.90;;;;;;5011607;28;20025;-55
2024/01/19 00:21:24;;;;;;;30.98;18.67;;;22.30;99.90;;;;;;5011745;28;20026;-52
2024/01/19 00:23:50;;;;;;;31.30;19.57;;;22.30;99.90;;;;;;5011745;28;20088;-53
2024/01/19 00:26:16;;;;;;;30.13;20.08;;;22.30;99.90;;;;;;5010204;28;20256;-54
2024/01/19 00:28:42;;;;;;;38.13;20.05;;;22.30;99.90;;;;;;5011795;28;20125;-54
2024/01/19 00:31:08;;;;;;;31.75;19.17;;;22.30;99.90;;;;;;5013015;28;20018;-53
2024/01/19 00:33:33;;;;;;;35.00;22.50;;;22.30;99.90;;;;;;5015513;28;20026;-53
2024/01/19 00:35:59;;;;;;;31.00;19.65;;;22.30;99.90;;;;;;5013395;28;20044;-53
2024/01/19 00:38:25;;;;;;;31.00;20.88;;;22.30;99.90;;;;;;5015373;28;20030;-53
2024/01/19 00:40:51;;;;;;;33.47;19.70;;;22.30;99.90;;;;;;5002988;28;20018;-55
2024/01/19 00:43:17;;;;;;;33.92;21.35;;;22.30;99.90;;;;;;5015290;28;20522;-52
2024/01/19 00:45:42;;;;;;;31.90;21.60;;;22.20;99.90;;;;;;5012894;28;20543;-54
2024/01/19 00:48:08;;;;;;;30.33;20.40;;;22.20;99.90;;;;;;5014889;28;20053;-55
2024/01/19 00:50:34;;;;;;;28.48;19.35;;;22.20;99.90;;;;;;5004714;28;20058;-57
2024/01/19 00:53:00;;;;;;;32.63;20.70;;;22.20;99.90;;;;;;5015306;28;20435;-60
2024/01/19 00:55:25;;;;;;;32.85;20.77;;;22.20;99.90;;;;;;5014557;28;20022;-60
2024/01/19 00:57:51;;;;;;;34.20;21.05;;;22.20;99.90;;;;;;5014927;28;20096;-60
2024/01/19 01:00:17;;;;;;;32.50;21.65;;;22.20;99.90;;;;;;5015826;23;20038;-45
2024/01/19 01:02:43;;;;;;;32.85;21.30;;;22.20;99.90;;;;;;5010355;28;20084;-46
2024/01/19 01:05:08;;;;;;;32.50;21.33;;;22.20;99.90;;;;;;5014921;28;20029;-46
2024/01/19 01:07:35;;;;;;;34.47;21.25;;;22.20;99.90;;;;;;5015218;28;20030;-46
2024/01/19 01:10:02;;;;;;;31.10;20.67;;;22.20;99.90;;;;;;5008478;28;20041;-46
2024/01/19 01:12:28;;;;;;;35.28;22.20;;;22.20;99.90;;;;;;5005743;28;20481;-46
2024/01/19 01:14:54;;;;;;;33.38;20.50;;;22.10;99.90;;;;;;5014761;28;20042;-45
2024/01/19 01:17:19;;;;;;;34.88;21.33;;;22.10;99.90;;;;;;5007286;28;20386;-45
2024/01/19 01:19:46;;;;;;;33.95;21.60;;;22.10;99.90;;;;;;4999285;28;20076;-45
2024/01/19 01:22:13;;;;;;;36.75;21.90;;;22.10;99.90;;;;;;5010873;28;20072;-45
2024/01/19 01:24:39;;;;;;;33.88;21.85;;;22.10;99.90;;;;;;5014663;28;20119;-46
2024/01/19 01:27:04;;;;;;;33.60;23.45;;;22.10;99.90;;;;;;5014312;28;20529;-46
2024/01/19 01:29:30;;;;;;;42.33;22.17;;;22.10;99.90;;;;;;5013810;28;20038;-46
2024/01/19 01:31:56;;;;;;;37.13;22.00;;;22.10;99.90;;;;;;4998752;28;20034;-45
2024/01/19 01:34:22;;;;;;;35.92;22.73;;;22.00;99.90;;;;;;4996394;28;20497;-45
2024/01/19 01:36:47;;;;;;;37.83;21.95;;;22.00;99.90;;;;;;4995252;28;20030;-45
2024/01/19 01:39:13;;;;;;;30.48;21.38;;;22.00;99.90;;;;;;4995220;28;20470;-45
2024/01/19 01:41:41;;;;;;;38.22;23.13;;;22.00;99.90;;;;;;5006129;28;20099;-45
2024/01/19 01:44:07;;;;;;;33.33;21.85;;;22.00;99.90;;;;;;5013533;28;20084;-46
2024/01/19 01:46:33;;;;;;;38.53;22.02;;;21.90;99.90;;;;;;5014737;28;20053;-50
2024/01/19 01:48:59;;;;;;;33.83;22.70;;;22.00;99.90;;;;;;5014675;28;20034;-45
2024/01/19 01:51:25;;;;;;;35.10;21.85;;;21.90;99.90;;;;;;5012756;28;20030;-46
2024/01/19 01:53:51;;;;;;;34.15;21.48;;;21.90;99.90;;;;;;5010616;28;20466;-45
2024/01/19 01:56:17;;;;;;;33.75;22.58;;;21.90;99.90;;;;;;5014696;28;20041;-46
2024/01/19 01:58:44;;;;;;;38.22;21.73;;;21.90;99.90;;;;;;5014147;28;20423;-45
2024/01/19 02:01:10;;;;;;;37.60;22.88;;;21.90;99.90;;;;;;5005882;28;20046;-47
2024/01/19 02:03:37;;;;;;;35.78;21.70;;;21.90;99.90;;;;;;4994691;28;20434;-45
2024/01/19 02:06:04;;;;;;;34.00;22.35;;;21.80;99.90;;;;;;4994756;28;20030;-45
2024/01/19 02:08:30;;;;;;;33.30;22.52;;;21.80;99.90;;;;;;4997641;28;20073;-44
2024/01/19 02:10:55;;;;;;;35.20;23.17;;;21.80;99.90;;;;;;5004516;28;20061;-43
2024/01/19 02:13:21;;;;;;;36.58;21.83;;;21.90;99.90;;;;;;5007931;28;20022;-44
2024/01/19 02:15:47;;;;;;;33.75;22.23;;;21.80;99.90;;;;;;5012406;28;20025;-44
2024/01/19 02:18:13;;;;;;;37.65;25.13;;;21.80;99.90;;;;;;5013055;28;20114;-43
2024/01/19 02:20:39;;;;;;;38.65;23.83;;;21.80;99.90;;;;;;5005575;28;20544;-43
2024/01/19 02:23:12;;;;;;;38.00;22.58;;;21.80;99.90;;;;;;5008897;28;20434;-44
2024/01/19 02:25:38;;;;;;;36.47;24.35;;;21.80;99.90;;;;;;5013636;28;20037;-44
2024/01/19 02:28:04;;;;;;;35.97;23.38;;;21.80;99.90;;;;;;5013357;28;20022;-43
2024/01/19 02:30:31;;;;;;;37.75;25.00;;;21.80;99.90;;;;;;5012196;28;20092;-45
2024/01/19 02:32:56;;;;;;;36.55;23.00;;;21.80;99.90;;;;;;5013298;28;20026;-44
2024/01/19 02:35:22;;;;;;;38.80;23.17;;;21.80;99.90;;;;;;5013444;28;20041;-43
2024/01/19 02:37:48;;;;;;;36.03;24.40;;;21.80;99.90;;;;;;5012973;28;20092;-44
2024/01/19 02:40:14;;;;;;;38.40;25.08;;;21.80;99.90;;;;;;4995542;28;20077;-44
2024/01/19 02:42:40;;;;;;;41.85;24.05;;;21.80;99.90;;;;;;5012759;28;20485;-44
2024/01/19 02:45:07;;;;;;;38.53;24.30;;;21.80;99.90;;;;;;5013076;28;20069;-44
2024/01/19 02:47:33;;;;;;;40.10;24.45;;;21.80;99.90;;;;;;5013036;28;20026;-43
2024/01/19 02:49:59;;;;;;;36.53;23.13;;;21.80;99.90;;;;;;5010331;28;20080;-44
2024/01/19 02:52:24;;;;;;;35.80;23.75;;;21.80;99.90;;;;;;5012728;28;20022;-44
2024/01/19 02:54:50;;;;;;;36.92;23.35;;;21.80;99.90;;;;;;5009382;28;20038;-44
2024/01/19 02:57:16;;;;;;;34.88;23.83;;;21.80;99.90;;;;;;5015308;28;20091;-44
2024/01/19 02:59:42;;;;;;;35.20;22.40;;;21.80;99.90;;;;;;5007173;28;20080;-43
2024/01/19 03:02:07;;;;;;;37.15;22.80;;;21.80;99.90;;;;;;5010495;28;20482;-44
2024/01/19 03:04:33;;;;;;;33.50;22.90;;;21.80;99.90;;;;;;5012494;28;20025;-44
2024/01/19 03:06:59;;;;;;;37.05;24.10;;;21.80;99.90;;;;;;5007835;28;20040;-44
2024/01/19 03:09:25;;;;;;;38.67;23.35;;;21.80;99.90;;;;;;5006800;28;20037;-43
2024/01/19 03:11:50;;;;;;;36.10;23.30;;;21.80;99.90;;;;;;5012820;28;20021;-44
2024/01/19 03:14:16;;;;;;;40.00;23.02;;;21.80;99.90;;;;;;4999711;28;20386;-44
2024/01/19 03:16:43;;;;;;;35.72;22.88;;;21.80;99.90;;;;;;5012740;28;20014;-43
2024/01/19 03:19:09;;;;;;;33.38;22.08;;;21.80;99.90;;;;;;5012080;28;20450;-43
2024/01/19 03:21:35;;;;;;;34.28;21.70;;;21.80;99.90;;;;;;5012073;28;20427;-43
2024/01/19 03:24:00;;;;;;;36.72;22.23;;;21.80;99.90;;;;;;5012780;28;20414;-44
2024/01/19 03:26:27;;;;;;;35.15;23.23;;;21.80;99.90;;;;;;5012377;28;20030;-44
2024/01/19 03:28:53;;;;;;;37.07;22.67;;;21.80;99.90;;;;;;5011001;28;20033;-44
2024/01/19 03:31:19;;;;;;;35.60;21.63;;;21.80;99.90;;;;;;5000746;28;20268;-45
2024/01/19 03:33:44;;;;;;;34.55;22.65;;;21.80;99.90;;;;;;5012239;28;20455;-45
2024/01/19 03:36:10;;;;;;;34.08;21.90;;;21.80;99.90;;;;;;5012236;28;20076;-44
2024/01/19 03:38:36;;;;;;;37.58;22.10;;;21.80;99.90;;;;;;5005805;28;20026;-45
2024/01/19 03:41:02;;;;;;;32.72;21.55;;;21.80;99.90;;;;;;5006975;28;20022;-45
2024/01/19 03:43:28;;;;;;;31.92;20.63;;;21.80;99.90;;;;;;5012499;28;20389;-45
2024/01/19 03:45:53;;;;;;;33.97;21.05;;;21.70;99.90;;;;;;5010860;28;20572;-45
2024/01/19 03:48:19;;;;;;;33.78;21.67;;;21.70;99.90;;;;;;5009723;28;20038;-44
2024/01/19 03:50:45;;;;;;;33.08;22.00;;;21.80;99.90;;;;;;5006543;28;20060;-45
2024/01/19 03:53:11;;;;;;;34.25;21.25;;;21.80;99.90;;;;;;5012002;28;20022;-44
2024/01/19 03:55:37;;;;;;;28.42;19.55;;;21.70;99.90;;;;;;5012105;28;20034;-45
2024/01/19 03:58:03;;;;;;;34.42;20.73;;;21.80;99.90;;;;;;5012127;28;20079;-45
2024/01/19 04:00:28;;;;;;;34.70;22.35;;;21.80;99.90;;;;;;5009959;28;20408;-45
2024/01/19 04:02:54;;;;;;;32.83;21.50;;;21.70;99.90;;;;;;5004343;28;20026;-45
2024/01/19 04:05:20;;;;;;;30.25;20.25;;;21.70;99.90;;;;;;5014690;28;20495;-45
2024/01/19 04:07:46;;;;;;;30.85;20.27;;;21.70;99.90;;;;;;5015864;28;20053;-46
2024/01/19 04:10:12;;;;;;;28.73;18.17;;;21.70;99.90;;;;;;5009704;28;20084;-45
2024/01/19 04:12:38;;;;;;;31.58;19.90;;;21.70;99.90;;;;;;4997903;28;20027;-45
2024/01/19 04:15:04;;;;;;;32.15;20.80;;;21.70;99.90;;;;;;5016051;28;20030;-45
2024/01/19 04:17:30;;;;;;;33.72;20.27;;;21.70;99.90;;;;;;5015996;28;20062;-45
2024/01/19 04:19:56;;;;;;;30.98;19.48;;;21.70;99.90;;;;;;5009336;28;20053;-50
2024/01/19 04:22:22;;;;;;;30.33;19.50;;;21.70;99.90;;;;;;5014458;28;20498;-45
2024/01/19 04:24:48;;;;;;;31.42;20.25;;;21.70;99.90;;;;;;5016047;28;20018;-45
2024/01/19 04:27:14;;;;;;;31.70;20.75;;;21.60;99.90;;;;;;5015829;28;20029;-45
2024/01/19 04:29:39;;;;;;;31.85;19.92;;;21.60;99.90;;;;;;5015590;28;20045;-44
2024/01/19 04:32:05;;;;;;;31.63;20.35;;;21.60;99.90;;;;;;5006541;28;20026;-45
2024/01/19 04:34:31;;;;;;;31.85;20.35;;;21.60;99.90;;;;;;5015316;28;20030;-45
2024/01/19 04:36:57;;;;;;;37.33;21.20;;;21.60;99.90;;;;;;5015703;28;20022;-45
2024/01/19 04:39:23;;;;;;;34.08;21.52;;;21.60;99.90;;;;;;5006837;28;20478;-45
2024/01/19 04:41:48;;;;;;;31.83;21.42;;;21.60;99.90;;;;;;5005166;28;20555;-47
2024/01/19 04:44:14;;;;;;;30.88;19.95;;;21.60;99.90;;;;;;5012199;28;20163;-45
2024/01/19 04:46:40;;;;;;;30.73;20.67;;;21.50;99.90;;;;;;5015308;28;20386;-45
2024/01/19 04:49:06;;;;;;;32.60;20.40;;;21.50;99.90;;;;;;5014010;28;20394;-45
2024/01/19 04:51:31;;;;;;;30.77;20.40;;;21.50;99.90;;;;;;5013150;28;20030;-45
2024/01/19 04:53:59;;;;;;;31.23;20.10;;;21.50;99.90;;;;;;5014434;28;20033;-48
2024/01/19 04:56:25;;;;;;;31.60;19.95;;;21.50;99.90;;;;;;5015556;28;20022;-44
2024/01/19 04:58:51;;;;;;;32.72;20.27;;;21.50;99.90;;;;;;5013886;28;20022;-44
2024/01/19 05:01:17;;;;;;;33.78;20.33;;;21.50;99.90;;;;;;4997197;28;20053;-45
2024/01/19 05:03:43;;;;;;;30.00;18.88;;;21.50;99.90;;;;;;4994884;28;20382;-45
2024/01/19 05:06:13;;;;;;;31.05;19.65;;;21.50;99.90;;;;;;4995920;28;20030;-45
2024/01/19 05:08:39;;;;;;;32.83;18.60;;;21.50;99.90;;;;;;4999151;28;20034;-44
2024/01/19 05:11:05;;;;;;;29.63;19.30;;;21.40;99.90;;;;;;5014939;28;20026;-45
2024/01/19 05:13:31;;;;;;;32.00;20.33;;;21.40;99.90;;;;;;5015333;28;20466;-45
2024/01/19 05:15:56;;;;;;;33.15;21.02;;;21.50;99.90;;;;;;5014413;28;20036;-44
2024/01/19 05:18:22;;;;;;;32.95;20.80;;;21.40;99.90;;;;;;5014664;28;20030;-45
2024/01/19 05:20:48;;;;;;;29.85;19.20;;;21.40;99.90;;;;;;5011569;28;20044;-44
2024/01/19 05:23:14;;;;;;;27.95;18.70;;;21.40;99.90;;;;;;5015140;28;20033;-44
2024/01/19 05:25:40;;;;;;;30.77;20.15;;;21.40;99.90;;;;;;5001876;28;20026;-45
2024/01/19 05:28:06;;;;;;;32.28;19.92;;;21.40;99.90;;;;;;4995455;28;20026;-44
2024/01/19 05:30:32;;;;;;;35.58;21.25;;;21.40;99.90;;;;;;4995190;28;20049;-45
2024/01/19 05:32:57;;;;;;;31.67;19.75;;;21.40;99.90;;;;;;4995198;28;20045;-45
2024/01/19 05:35:23;;;;;;;30.60;18.92;;;21.40;99.90;;;;;;5003066;28;20486;-45
2024/01/19 05:37:49;;;;;;;33.65;20.85;;;21.40;99.90;;;;;;5014452;28;20030;-45
2024/01/19 05:40:15;;;;;;;27.48;19.13;;;21.30;99.90;;;;;;4999208;28;20502;-45
2024/01/19 05:42:40;;;;;;;29.02;18.33;;;21.40;99.90;;;;;;4995246;28;20088;-46
2024/01/19 05:45:07;;;;;;;29.77;18.60;;;21.40;99.90;;;;;;4995059;28;20108;-45
2024/01/19 05:47:32;;;;;;;31.17;19.58;;;21.30;99.90;;;;;;4993877;28;20034;-45
2024/01/19 05:49:58;;;;;;;31.35;19.20;;;21.30;99.90;;;;;;5005896;28;20044;-45
2024/01/19 05:52:24;;;;;;;30.77;20.55;;;21.30;99.90;;;;;;5014495;28;20525;-45
2024/01/19 05:54:50;;;;;;;33.60;20.55;;;21.30;99.90;;;;;;5014072;28;20026;-45
2024/01/19 05:57:16;;;;;;;34.08;20.35;;;21.30;99.90;;;;;;5014661;28;20026;-45
2024/01/19 05:59:42;;;;;;;31.63;19.92;;;21.30;99.90;;;;;;5005974;28;20026;-45
2024/01/19 06:02:08;;;;;;;28.10;18.55;;;21.30;99.90;;;;;;4995138;28;20129;-45
2024/01/19 06:04:36;;;;;;;30.38;19.30;;;21.30;99.90;;;;;;5013026;28;20026;-44
2024/01/19 06:07:03;;;;;;;29.10;18.80;;;21.30;99.90;;;;;;4996902;28;20113;-45
2024/01/19 06:09:29;;;;;;;34.17;21.05;;;21.30;99.90;;;;;;4993697;28;20097;-44
2024/01/19 06:11:54;;;;;;;31.13;20.20;;;21.30;99.90;;;;;;5002067;28;20026;-45
2024/01/19 06:14:20;;;;;;;33.30;20.27;;;21.30;99.90;;;;;;5014267;28;20036;-46
2024/01/19 06:16:46;;;;;;;34.08;20.10;;;21.30;99.90;;;;;;5002080;28;20062;-45
2024/01/19 06:19:12;;;;;;;32.22;20.60;;;21.30;99.90;;;;;;4994313;28;20029;-45
2024/01/19 06:21:38;;;;;;;31.92;21.67;;;21.30;99.90;;;;;;4994346;28;20460;-45
2024/01/19 06:24:04;;;;;;;31.67;18.92;;;21.20;99.90;;;;;;4993129;28;20045;-45
2024/01/19 06:26:32;;;;;;;32.10;20.85;;;21.20;99.90;;;;;;5002208;28;20112;-45
2024/01/19 06:29:01;;;;;;;32.50;19.75;;;21.20;99.90;;;;;;5012874;28;20095;-45
2024/01/19 06:31:27;;;;;;;33.13;20.73;;;21.20;99.90;;;;;;5013361;28;20044;-45
2024/01/19 06:33:52;;;;;;;32.05;18.95;;;21.20;99.90;;;;;;5013770;28;20022;-45
2024/01/19 06:36:18;;;;;;;35.60;19.88;;;21.20;99.90;;;;;;5008452;28;20033;-46
2024/01/19 06:38:44;;;;;;;29.85;18.27;;;21.20;99.90;;;;;;4994096;28;20116;-46
2024/01/19 06:41:10;;;;;;;34.40;19.00;;;21.20;99.90;;;;;;4994150;28;20108;-46
2024/01/19 06:43:36;;;;;;;25.23;17.58;;;21.20;99.90;;;;;;5009698;28;20029;-45
2024/01/19 06:46:01;;;;;;;30.88;18.30;;;21.20;99.90;;;;;;4994751;28;20042;-45
2024/01/19 06:48:27;;;;;;;32.85;18.67;;;21.20;99.90;;;;;;5013362;28;20367;-45
2024/01/19 06:50:53;;;;;;;30.55;18.42;;;21.20;99.90;;;;;;5013550;28;20037;-45
2024/01/19 06:53:19;;;;;;;30.92;19.33;;;21.20;99.90;;;;;;5011891;28;20115;-45
2024/01/19 06:55:44;;;;;;;30.70;19.08;;;21.20;99.90;;;;;;5013204;28;20030;-45
2024/01/19 06:58:10;;;;;;;30.33;18.00;;;21.10;99.90;;;;;;4994512;28;20033;-45
2024/01/19 07:00:36;;;;;;;28.90;19.42;;;21.10;99.90;;;;;;4993457;28;20054;-45
2024/01/19 07:03:02;;;;;;;30.73;18.60;;;21.10;99.90;;;;;;5010151;28;20113;-45
2024/01/19 07:05:27;;;;;;;35.22;20.02;;;21.10;99.90;;;;;;5013175;28;20061;-45
2024/01/19 07:07:53;;;;;;;30.73;18.77;;;21.10;99.90;;;;;;4997471;28;20030;-44
2024/01/19 07:10:19;;;;;;;33.58;20.50;;;21.10;99.90;;;;;;4993655;28;20112;-45
2024/01/19 07:12:45;;;;;;;35.88;19.60;;;21.10;99.90;;;;;;4993446;28;20474;-45
2024/01/19 07:15:11;;;;;;;35.40;20.88;;;21.10;99.90;;;;;;4993456;28;20451;-45
2024/01/19 07:17:36;;;;;;;38.00;20.25;;;21.00;99.90;;;;;;4993284;28;20026;-45
2024/01/19 07:20:05;;;;;;;33.90;19.20;;;21.00;99.90;;;;;;4992308;28;20073;-45
2024/01/19 07:22:31;;;;;;;30.80;18.70;;;21.10;99.90;;;;;;4993325;28;20486;-47
2024/01/19 07:24:56;;;;;;;35.95;19.60;;;21.00;99.90;;;;;;4993545;28;20034;-45
2024/01/19 07:27:22;;;;;;;31.27;18.42;;;21.00;99.90;;;;;;5007473;28;20026;-46
2024/01/19 07:29:48;;;;;;;33.40;19.63;;;21.00;99.90;;;;;;5011776;28;20460;-46
2024/01/19 07:32:14;;;;;;;31.73;19.15;;;21.00;99.90;;;;;;5012410;28;20829;-46
2024/01/19 07:34:40;;;;;;;28.60;18.17;;;21.00;99.90;;;;;;5012420;28;20037;-46
2024/01/19 07:37:06;;;;;;;28.63;17.75;;;21.00;99.90;;;;;;5001613;28;20037;-46
2024/01/19 07:39:32;;;;;;;33.78;19.70;;;21.00;99.90;;;;;;4999249;28;20033;-45
2024/01/19 07:41:57;;;;;;;34.38;20.00;;;21.00;99.90;;;;;;5012303;28;20033;-45
2024/01/19 07:44:23;;;;;;;31.88;19.17;;;20.90;99.90;;;;;;5011648;28;20022;-45
2024/01/19 07:46:49;;;;;;;33.33;20.27;;;21.00;99.90;;;;;;5012837;28;20060;-46
2024/01/19 07:49:20;;;;;;;30.75;17.85;;;20.90;99.90;;;;;;5008441;28;20029;-45
2024/01/19 07:51:49;;;;;;;31.98;19.27;;;20.90;99.90;;;;;;5003841;28;20034;-45
2024/01/19 07:54:16;;;;;;;27.98;17.60;;;20.90;99.90;;;;;;4992896;28;20034;-45
2024/01/19 07:56:42;;;;;;;30.00;17.75;;;20.90;99.90;;;;;;4992795;28;20022;-46
2024/01/19 07:59:08;;;;;;;35.35;16.85;;;20.90;99.90;;;;;;4992777;28;20481;-44
2024/01/19 08:01:34;;;;;;;25.50;16.73;;;20.90;99.90;;;;;;5003399;28;20371;-45
2024/01/19 08:04:00;;;;;;;28.67;17.45;;;20.90;99.90;;;;;;5010090;28;20064;-45
2024/01/19 08:06:26;;;;;;;28.45;16.83;;;20.90;99.90;;;;;;4994367;28;20054;-45
2024/01/19 08:08:51;;;;;;;26.40;18.02;;;20.90;99.90;;;;;;5007335;28;20133;-45
2024/01/19 08:11:17;;;;;;;25.70;16.50;;;20.90;99.90;;;;;;5011668;28;20034;-46
2024/01/19 08:13:43;;;;;;;30.13;18.40;;;20.90;99.90;;;;;;5009435;28;20022;-46
2024/01/19 08:16:09;;;;;;;28.33;16.75;;;20.90;99.90;;;;;;5002189;28;20344;-45
2024/01/19 08:18:35;;;;;;;29.75;16.90;;;20.90;99.90;;;;;;5011560;28;20029;-45
2024/01/19 08:21:01;;;;;;;30.83;17.05;;;20.90;99.90;;;;;;5003646;28;20041;-46
2024/01/19 08:23:27;;;;;;;25.55;16.55;;;20.90;99.90;;;;;;4992107;28;20018;-45
2024/01/19 08:25:53;;;;;;;25.80;17.05;;;20.90;99.90;;;;;;4993092;28;20050;-44
2024/01/19 08:28:19;;;;;;;24.75;14.68;;;20.90;99.90;;;;;;4995521;28;20117;-46
2024/01/19 08:30:45;;;;;;;23.88;14.90;;;20.90;99.90;;;;;;5010418;28;20056;-45
2024/01/19 08:33:12;;;;;;;23.75;15.32;;;20.90;99.90;;;;;;5012105;28;20100;-46
2024/01/19 08:35:38;;;;;;;25.35;15.27;;;20.90;99.90;;;;;;4996511;28;20554;-45
2024/01/19 08:38:04;;;;;;;22.88;14.52;;;20.90;99.90;;;;;;4992479;28;20094;-45
2024/01/19 08:40:30;;;;;;;29.08;16.85;;;20.90;99.90;;;;;;4993399;28;20383;-45
2024/01/19 08:42:56;;;;;;;25.50;16.05;;;20.90;99.90;;;;;;4992283;28;20022;-45
2024/01/19 08:45:22;;;;;;;23.55;13.20;;;20.90;99.90;;;;;;4992494;28;20030;-46
2024/01/19 08:47:49;;;;;;;22.60;14.70;;;20.90;99.90;;;;;;4993443;28;20023;-45
2024/01/19 08:50:16;;;;;;;24.45;14.40;;;20.90;99.90;;;;;;4997184;28;20025;-45
2024/01/19 08:52:42;;;;;;;28.55;15.07;;;20.90;99.90;;;;;;5015257;28;20047;-45
2024/01/19 08:55:08;;;;;;;22.70;13.88;;;20.90;99.90;;;;;;5015507;28;20032;-45
2024/01/19 08:57:34;;;;;;;25.90;14.40;;;20.90;99.90;;;;;;5009560;28;20080;-45
2024/01/19 09:00:01;;;;;;;22.70;13.25;;;20.90;99.90;;;;;;5013592;28;20030;-45
2024/01/19 09:02:27;;;;;;;23.15;13.93;;;20.90;99.90;;;;;;5001077;28;20387;-45
2024/01/19 09:04:53;;;;;;;21.00;13.35;;;20.90;99.90;;;;;;4996113;28;20109;-45
2024/01/19 09:07:19;;;;;;;24.73;13.27;;;20.90;99.90;;;;;;4995636;28;20430;-45
2024/01/19 09:09:44;;;;;;;20.25;12.55;;;20.90;99.90;;;;;;4995603;28;20045;-45
2024/01/19 09:12:10;;;;;;;23.67;13.15;;;20.90;99.90;;;;;;4999487;28;20030;-45
2024/01/19 09:14:36;;;;;;;21.85;12.70;;;20.90;99.90;;;;;;5015122;28;20490;-45
2024/01/19 09:17:02;;;;;;;21.55;12.65;;;20.90;99.90;;;;;;5015188;28;20053;-45
2024/01/19 09:19:28;;;;;;;20.70;11.35;;;20.90;99.90;;;;;;5014840;28;20054;-45
2024/01/19 09:21:54;;;;;;;22.80;12.77;;;20.90;99.90;;;;;;5011182;28;20058;-45
2024/01/19 09:24:20;;;;;;;19.83;11.95;;;20.90;99.90;;;;;;4995443;28;20030;-44
2024/01/19 09:26:45;;;;;;;24.40;13.10;;;20.90;99.90;;;;;;5003307;28;20478;-44
2024/01/19 09:29:11;;;;;;;20.30;12.52;;;20.90;99.90;;;;;;5014748;28;20062;-45
2024/01/19 09:31:44;;;;;;;22.95;12.48;;;20.90;99.90;;;;;;4997063;28;20121;-44
2024/01/19 09:34:10;;;;;;;21.00;12.95;;;20.90;99.90;;;;;;4994071;28;20014;-44
2024/01/19 09:36:37;;;;;;;25.65;12.68;;;20.90;99.90;;;;;;4995124;28;20027;-45
2024/01/19 09:39:03;;;;;;;19.33;11.98;;;20.90;99.90;;;;;;4995025;28;20072;-44
2024/01/19 09:41:38;;;;;;;22.88;13.43;;;20.80;99.90;;;;;;5009256;28;20116;-45
2024/01/19 09:44:08;;;;;;;20.52;11.75;;;20.90;99.90;;;;;;5006794;28;20609;-44
2024/01/19 09:46:48;;;;;;;21.00;11.25;;;20.80;99.90;;;;;;5009356;28;20383;-45
2024/01/19 09:49:35;;;;;;;25.23;13.13;;;20.80;99.90;;;;;;5003504;28;20035;-44
2024/01/19 09:52:02;;;;;;;20.73;13.10;;;20.90;99.90;;;;;;5014358;28;20025;-44
2024/01/19 09:54:33;;;;;;;24.27;12.27;;;20.80;99.90;;;;;;4996893;28;20058;-44
2024/01/19 09:57:02;;;;;;;19.45;11.52;;;20.90;99.90;;;;;;4999482;28;20033;-44
2024/01/19 09:59:33;;;;;;;21.90;13.40;;;20.90;99.90;;;;;;5014240;28;20045;-44
2024/01/19 10:02:00;;;;;;;20.23;12.00;;;20.90;99.90;;;;;;5012656;28;20494;-45
2024/01/19 10:04:27;;;;;;;24.17;12.75;;;20.90;99.90;;;;;;4994998;28;20042;-44
2024/01/19 10:06:55;;;;;;;22.05;12.70;;;20.90;99.90;;;;;;4994639;28;20038;-44
2024/01/19 10:09:22;;;;;;;21.48;11.23;;;20.90;99.90;;;;;;4994073;28;20480;-44
2024/01/19 10:11:54;;;;;;;;;;;20.90;99.90;;;;;;5004199;28;20391;-45
2024/01/19 10:14:21;;;;;;;23.27;12.40;;;20.90;99.90;;;;;;5003007;28;20455;-45
2024/01/19 10:16:51;;;;;;;20.77;11.20;;;20.90;99.90;;;;;;4995543;28;20059;-45
2024/01/19 10:19:20;;;;;;;21.77;11.80;;;20.90;99.90;;;;;;4994170;28;20323;-51
2024/01/19 10:21:46;;;;;;;22.27;11.73;;;20.90;99.90;;;;;;5002200;28;20025;-45
2024/01/19 10:24:19;;;;;;;18.92;10.07;;;20.80;99.90;;;;;;5011622;28;20497;-45
2024/01/19 10:26:52;;;;;;;20.55;11.55;;;20.90;99.90;;;;;;5013265;28;20034;-45
2024/01/19 10:29:18;;;;;;;21.55;11.55;;;20.80;99.90;;;;;;5008690;28;20491;-46
2024/01/19 10:31:49;;;;;;;19.95;10.68;;;20.80;99.90;;;;;;5004963;28;20469;-46
2024/01/19 10:34:20;;;;;;;21.23;11.43;;;20.80;99.90;;;;;;5007163;28;20037;-45
2024/01/19 10:36:47;;;;;;;18.27;12.00;;;20.80;99.90;;;;;;5011888;28;20319;-45
2024/01/19 10:39:18;;;;;;;19.10;11.10;;;20.80;99.90;;;;;;5009649;28;20048;-45
2024/01/19 10:41:44;;;;;;;18.15;10.55;;;20.80;99.90;;;;;;5008927;28;20196;-46
2024/01/19 10:44:11;;;;;;;23.60;11.60;;;20.80;99.90;;;;;;5007934;28;20442;-45
2024/01/19 10:46:38;;;;;;;16.67;10.02;;;20.80;99.90;;;;;;5007978;28;20056;-44
2024/01/19 10:49:05;;;;;;;24.77;11.38;;;20.80;99.90;;;;;;5010299;28;20037;-44
2024/01/19 10:51:34;;;;;;;20.17;9.05;;;20.80;99.90;;;;;;5013298;28;20033;-44
2024/01/19 10:54:02;;;;;;;25.23;9.95;;;20.80;99.90;;;;;;5011726;28;20026;-44
2024/01/19 10:56:28;;;;;;;25.42;10.35;;;20.80;99.90;;;;;;4996439;28;20026;-45
2024/01/19 10:58:54;;;;;;;24.60;10.38;;;20.80;99.90;;;;;;4993637;28;20041;-45
2024/01/19 11:01:20;;;;;;;21.20;10.90;;;20.80;99.90;;;;;;5005452;28;20057;-45
2024/01/19 11:03:46;;;;;;;22.77;11.10;;;20.80;99.90;;;;;;5011560;28;20045;-46
2024/01/19 11:06:12;;;;;;;22.58;9.90;;;20.80;99.90;;;;;;5012233;28;20466;-46
2024/01/19 11:08:40;;;;;;;20.63;10.93;;;20.80;99.90;;;;;;5011923;28;20118;-45
2024/01/19 11:11:06;;;;;;;20.63;10.70;;;20.80;99.90;;;;;;5011433;28;20506;-45
2024/01/19 11:13:40;;;;;;;30.77;11.55;;;20.80;99.90;;;;;;5011087;28;20038;-47
2024/01/19 11:16:12;;;;;;;21.27;9.43;;;20.80;99.90;;;;;;5011361;28;20030;-45
2024/01/19 11:18:39;;;;;;;21.25;9.35;;;20.80;99.90;;;;;;4999793;28;20019;-47
2024/01/19 11:21:06;;;;;;;21.65;9.95;;;20.80;99.90;;;;;;4993054;28;20037;-47
2024/01/19 11:23:34;;;;;;;19.25;9.38;;;20.80;99.90;;;;;;5002552;28;20037;-45
2024/01/19 11:26:22;;;;;;;22.10;10.40;;;20.90;99.90;;;;;;5011339;28;20084;-45
2024/01/19 11:28:57;;;;;;;19.63;9.43;;;20.80;99.90;;;;;;5011072;28;20390;-45
2024/01/19 11:31:27;;;;;;;19.20;9.48;;;20.90;99.90;;;;;;5012513;28;20048;-46
2024/01/19 11:33:53;;;;;;;19.92;9.77;;;20.90;99.90;;;;;;4996326;28;20021;-46
2024/01/19 11:36:41;;;;;;;20.77;9.02;;;20.90;99.90;;;;;;4998967;28;20030;-44
2024/01/19 11:39:10;;;;;;;19.05;9.18;;;20.90;99.90;;;;;;5012187;28;20030;-45
2024/01/19 11:41:36;;;;;;;19.65;8.48;;;20.90;99.90;;;;;;5007946;28;20033;-46
2024/01/19 11:44:07;;;;;;;16.10;7.85;;;21.00;99.90;;;;;;4997888;28;20030;-46
2024/01/19 11:46:47;;;;;;;20.10;7.93;;;21.00;99.90;;;;;;4995527;28;20058;-45
2024/01/19 11:49:35;;;;;;;18.77;7.75;;;21.00;99.90;;;;;;4991739;28;20475;-46
2024/01/19 11:52:03;;;;;;;20.65;9.18;;;21.10;99.90;;;;;;4991037;28;20026;-48
2024/01/19 11:54:32;;;;;;;16.67;7.00;;;21.10;99.90;;;;;;4992819;28;20026;-48
2024/01/19 11:57:30;;;;;;;17.73;8.85;;;21.10;99.90;;;;;;4991457;28;20030;-46
2024/01/19 11:59:56;;;;;;;14.82;6.70;;;21.10;99.90;;;;;;4970478;28;20038;-45
2024/01/19 12:02:27;;;;;;;18.02;7.72;;;21.20;99.90;;;;;;4992470;28;20149;-45
2024/01/19 12:04:53;;;;;;;16.00;7.90;;;21.20;99.90;;;;;;5008026;28;20042;-45
2024/01/19 12:07:22;;;;;;;14.88;7.90;;;21.20;99.90;;;;;;5012326;28;20097;-45
2024/01/19 12:10:26;;;;;;;18.55;8.68;;;21.20;99.90;;;;;;5012101;28;20542;-46
2024/01/19 12:12:53;;;;;;;20.33;7.85;;;21.20;99.90;;;;;;4951492;28;20070;-46
2024/01/19 12:15:19;;;;;;;16.83;7.35;;;21.30;99.90;;;;;;4951618;29;20027;-49
2024/01/19 12:17:45;;;;;;;18.63;6.53;;;21.30;99.90;;;;;;4980702;28;20133;-48
2024/01/19 12:20:15;;;;;;;20.48;7.28;;;21.30;99.90;;;;;;5003068;28;20027;-48
2024/01/19 12:22:44;;;;;;;17.90;6.45;;;21.40;99.90;;;;;;4992733;28;20402;-50
2024/01/19 12:25:17;;;;;;;19.60;6.00;;;21.30;99.90;;;;;;4992672;28;20026;-46
2024/01/19 12:27:44;;;;;;;21.88;7.10;;;21.40;99.90;;;;;;4996005;28;20014;-46